Time;durP1;ratioP1;P1;durP2;ratioP2;P2;SDS_P1;SDS_P2;PMS_P1;PMS_P2;Temp;Humidity;BMP_temperature;BMP_pressure;BME280_temperature;BME280_humidity;BME280_pressure;Samples;Min_cycle;Max_cycle;Signal;HPM_P1;HPM_P2
2021/10/09 00:00:10;;;;;;;37.40;21.80;;;;;;;1.65;74.84;102513.04;93829;1196;80493;-64
2021/10/09 00:02:34;;;;;;;32.80;19.40;;;;;;;1.66;74.80;102512.83;93762;1196;98453;-64
2021/10/09 00:04:39;;;;;;;34.90;19.40;;;;;;;1.63;74.88;102514.77;93810;1196;88514;-66
2021/10/09 00:06:46;;;;;;;38.40;19.30;;;;;;;1.60;74.83;102516.20;93842;1196;92852;-66
2021/10/09 00:08:50;;;;;;;32.80;20.30;;;;;;;1.56;74.92;102512.11;93828;1197;77241;-64
2021/10/09 00:10:54;;;;;;;30.30;19.60;;;;;;;1.53;74.97;102514.44;93884;1196;81295;-65
2021/10/09 00:12:58;;;;;;;35.10;19.20;;;;;;;1.52;75.02;102517.14;93820;1196;99369;-66
2021/10/09 00:15:05;;;;;;;37.90;20.30;;;;;;;1.51;75.17;102511.70;93882;1196;87870;-63
2021/10/09 00:17:13;;;;;;;31.70;18.50;;;;;;;1.49;75.21;102517.80;93851;1196;93116;-63
2021/10/09 00:19:20;;;;;;;30.50;17.50;;;;;;;1.49;75.20;102517.14;93863;1196;80601;-65
2021/10/09 00:21:24;;;;;;;38.00;20.40;;;;;;;1.48;75.31;102518.08;93878;1190;82028;-66
2021/10/09 00:23:28;;;;;;;29.70;18.00;;;;;;;1.49;75.29;102521.38;93886;1196;98705;-66
2021/10/09 00:25:33;;;;;;;32.90;19.60;;;;;;;1.50;75.35;102520.11;93813;1196;87626;-64
2021/10/09 00:27:40;;;;;;;33.00;18.10;;;;;;;1.53;75.35;102519.95;93836;1196;92903;-64
2021/10/09 00:29:44;;;;;;;30.30;18.70;;;;;;;1.53;75.31;102516.21;93795;1196;79370;-66
2021/10/09 00:31:48;;;;;;;30.20;17.40;;;;;;;1.53;75.29;102517.43;93802;1195;79664;-66
2021/10/09 00:33:52;;;;;;;29.10;18.30;;;;;;;1.53;75.34;102516.39;93841;1196;98188;-66
2021/10/09 00:35:56;;;;;;;30.80;18.50;;;;;;;1.54;75.40;102516.33;93843;1196;88091;-65
2021/10/09 00:38:00;;;;;;;31.70;16.60;;;;;;;1.56;75.47;102518.02;93847;1196;93030;-65
2021/10/09 00:40:07;;;;;;;33.20;19.90;;;;;;;1.58;75.50;102516.45;93782;1196;77465;-63
2021/10/09 00:42:15;;;;;;;31.60;17.20;;;;;;;1.61;75.45;102514.69;93867;1196;81883;-64
2021/10/09 00:44:22;;;;;;;29.20;17.10;;;;;;;1.61;75.51;102516.63;93843;1197;98980;-62
2021/10/09 00:46:26;;;;;;;31.90;19.10;;;;;;;1.67;75.58;102514.90;93832;1196;86769;-62
2021/10/09 00:48:35;;;;;;;32.90;18.10;;;;;;;1.77;75.60;102513.13;93806;1196;94044;-62
2021/10/09 00:50:42;;;;;;;24.70;16.30;;;;;;;1.91;75.78;102510.11;93842;1196;77643;-66
2021/10/09 00:52:47;;;;;;;28.60;17.40;;;;;;;1.98;75.85;102510.23;93798;1196;80971;-66
2021/10/09 00:54:53;;;;;;;27.30;16.70;;;;;;;2.00;75.78;102506.59;93936;1195;98529;-65
2021/10/09 00:56:59;;;;;;;27.00;16.20;;;;;;;2.00;75.64;102510.45;93789;1196;86934;-67
2021/10/09 00:59:03;;;;;;;27.60;16.50;;;;;;;2.00;75.61;102508.52;93813;1196;92815;-63
2021/10/09 01:01:10;;;;;;;29.10;16.20;;;;;;;1.99;75.46;102510.58;93831;1195;80387;-63
2021/10/09 01:03:15;;;;;;;30.90;17.40;;;;;;;1.95;75.45;102508.46;93790;1197;80610;-63
2021/10/09 01:05:20;;;;;;;29.20;17.00;;;;;;;1.90;75.52;102511.57;93827;1196;100238;-63
2021/10/09 01:07:24;;;;;;;34.70;18.10;;;;;;;1.85;75.48;102512.35;93840;1196;87813;-63
2021/10/09 01:09:28;;;;;;;32.40;17.50;;;;;;;1.81;75.54;102513.30;93784;1196;94716;-66
2021/10/09 01:11:33;;;;;;;26.90;16.70;;;;;;;1.78;75.54;102514.49;93810;1196;79280;-67
2021/10/09 01:13:40;;;;;;;25.90;16.50;;;;;;;1.79;75.50;102513.02;93841;1180;82518;-65
2021/10/09 01:15:44;;;;;;;30.90;17.20;;;;;;;1.78;75.59;102510.07;93886;1195;97713;-63
2021/10/09 01:17:48;;;;;;;28.10;16.30;;;;;;;1.75;75.73;102508.64;93850;1196;88749;-64
2021/10/09 01:19:52;;;;;;;29.90;16.30;;;;;;;1.76;75.79;102508.05;93859;1196;93167;-64
2021/10/09 01:21:56;;;;;;;29.80;17.20;;;;;;;1.75;75.66;102504.51;93875;1181;77763;-64
2021/10/09 01:24:00;;;;;;;23.30;14.50;;;;;;;1.80;75.79;102508.17;93825;1197;79930;-67
2021/10/09 01:26:07;;;;;;;26.20;15.90;;;;;;;1.87;75.83;102503.91;93851;1196;99717;-65
2021/10/09 01:28:11;;;;;;;32.20;16.20;;;;;;;1.93;75.90;102505.90;93841;1196;88371;-67
2021/10/09 01:30:15;;;;;;;28.60;15.60;;;;;;;1.94;75.99;102504.26;93829;1196;93862;-63
2021/10/09 01:32:19;;;;;;;26.50;15.70;;;;;;;1.89;75.91;102500.23;93870;1195;78243;-64
2021/10/09 01:34:25;;;;;;;27.10;15.60;;;;;;;1.84;75.98;102505.85;93871;1197;81323;-65
2021/10/09 01:36:34;;;;;;;30.40;16.10;;;;;;;1.77;75.90;102502.27;93820;1195;99707;-64
2021/10/09 01:38:39;;;;;;;22.70;14.40;;;;;;;1.70;75.81;102499.99;93876;1195;88193;-65
2021/10/09 01:40:43;;;;;;;25.90;16.60;;;;;;;1.64;76.01;102505.83;93839;1196;94363;-64
2021/10/09 01:42:50;;;;;;;24.50;15.70;;;;;;;1.59;76.01;102507.34;93797;1196;77336;-65
2021/10/09 01:44:54;;;;;;;27.60;16.40;;;;;;;1.56;76.17;102502.89;93840;1195;81483;-66
2021/10/09 01:46:58;;;;;;;27.20;15.90;;;;;;;1.55;76.30;102508.45;93899;1197;100297;-67
2021/10/09 01:49:02;;;;;;;24.10;15.70;;;;;;;1.53;76.31;102505.73;93885;1195;87688;-64
2021/10/09 01:51:08;;;;;;;28.90;15.60;;;;;;;1.52;76.31;102505.92;93839;1196;94161;-65
2021/10/09 01:53:15;;;;;;;25.10;15.30;;;;;;;1.52;76.40;102508.42;93802;1196;81217;-65
2021/10/09 01:55:23;;;;;;;24.60;15.20;;;;;;;1.52;76.45;102502.95;93869;1195;80917;-65
2021/10/09 01:57:27;;;;;;;23.40;14.90;;;;;;;1.50;76.56;102503.04;93859;1196;100167;-64
2021/10/09 01:59:31;;;;;;;28.00;15.80;;;;;;;1.48;76.51;102503.67;93846;1196;88549;-64
2021/10/09 02:01:35;;;;;;;23.50;15.20;;;;;;;1.47;76.59;102502.48;93858;1196;93367;-65
2021/10/09 02:03:39;;;;;;;22.70;15.40;;;;;;;1.48;76.56;102501.92;93832;1196;80173;-65
2021/10/09 02:05:43;;;;;;;26.40;16.10;;;;;;;1.47;76.68;102498.58;93798;1196;81459;-65
2021/10/09 02:07:47;;;;;;;30.90;16.20;;;;;;;1.44;76.71;102498.02;93851;1180;100043;-64
2021/10/09 02:09:51;;;;;;;25.20;15.10;;;;;;;1.44;76.68;102497.50;93879;1196;87667;-66
2021/10/09 02:11:58;;;;;;;28.80;15.70;;;;;;;1.42;76.75;102500.09;93833;1195;94808;-67
2021/10/09 02:14:05;;;;;;;28.00;16.00;;;;;;;1.41;76.80;102499.42;93859;1195;77523;-64
2021/10/09 02:16:19;;;;;;;26.80;15.50;;;;;;;1.44;76.98;102502.13;93747;1196;80474;-64
2021/10/09 02:18:32;;;;;;;25.80;14.90;;;;;;;1.42;76.89;102503.45;93828;1195;100790;-64
2021/10/09 02:25:34;;;;;;;29.10;16.00;;;;;;;1.35;76.86;102501.00;93770;1197;77012;-64
2021/10/09 02:27:37;;;;;;;27.50;16.90;;;;;;;1.30;77.00;102506.42;93810;1196;81568;-65
2021/10/09 02:29:41;;;;;;;29.80;15.40;;;;;;;1.23;76.89;102503.73;93796;1197;98902;-67
2021/10/09 02:31:47;;;;;;;31.00;16.90;;;;;;;1.15;76.84;102502.88;93869;1195;87959;-67
2021/10/09 02:33:51;;;;;;;34.80;16.50;;;;;;;1.14;76.86;102504.02;93864;1196;93041;-65
2021/10/09 02:35:56;;;;;;;28.00;16.70;;;;;;;1.14;76.85;102502.61;93859;1196;76535;-67
2021/10/09 02:38:00;;;;;;;27.60;15.70;;;;;;;1.13;76.83;102506.02;93840;1195;80263;-67
2021/10/09 02:40:08;;;;;;;29.10;15.80;;;;;;;1.11;76.94;102504.87;93891;1195;100052;-67
2021/10/09 02:42:12;;;;;;;30.30;16.40;;;;;;;1.09;76.86;102506.92;93783;1196;88220;-67
2021/10/09 02:44:19;;;;;;;30.10;17.30;;;;;;;1.06;76.94;102506.55;93829;1196;94603;-64
2021/10/09 02:46:23;;;;;;;31.90;16.00;;;;;;;1.00;76.91;102509.86;93872;1196;79916;-64
2021/10/09 02:48:27;;;;;;;27.50;16.50;;;;;;;0.95;76.99;102506.40;93850;1196;80667;-64
2021/10/09 02:50:34;;;;;;;24.40;15.20;;;;;;;0.88;77.03;102502.34;93833;1196;99853;-67
2021/10/09 02:52:38;;;;;;;28.80;15.90;;;;;;;0.83;77.14;102506.50;93864;1196;88088;-67
2021/10/09 02:54:42;;;;;;;27.50;16.30;;;;;;;0.78;77.21;102507.25;93848;1195;94962;-67
2021/10/09 02:56:46;;;;;;;27.70;16.90;;;;;;;0.74;77.22;102506.40;93885;1197;81039;-67
2021/10/09 02:58:50;;;;;;;29.60;17.20;;;;;;;0.74;77.29;102504.48;93825;1196;81355;-66
2021/10/09 03:00:54;;;;;;;24.80;15.90;;;;;;;0.72;77.43;102504.92;93858;1196;98185;-67
2021/10/09 03:02:59;;;;;;;27.90;16.30;;;;;;;0.72;77.49;102499.95;93850;1196;90059;-67
2021/10/09 03:05:04;;;;;;;27.20;16.80;;;;;;;0.72;77.55;102497.25;93897;1196;92534;-66
2021/10/09 03:07:08;;;;;;;28.00;15.80;;;;;;;0.74;77.43;102497.54;93848;1195;78690;-66
2021/10/09 03:09:12;;;;;;;26.00;14.50;;;;;;;0.73;77.57;102495.45;93803;1196;80874;-66
2021/10/09 03:11:16;;;;;;;26.10;15.30;;;;;;;0.74;77.45;102496.48;93817;1196;98391;-67
2021/10/09 03:13:20;;;;;;;28.70;15.60;;;;;;;0.75;77.48;102498.20;93837;1196;86957;-67
2021/10/09 03:15:24;;;;;;;25.00;15.30;;;;;;;0.75;77.56;102499.07;93803;1196;95154;-67
2021/10/09 03:17:28;;;;;;;27.00;15.80;;;;;;;0.73;77.49;102497.61;93798;1196;79206;-67
2021/10/09 03:19:32;;;;;;;28.90;16.30;;;;;;;0.68;77.69;102495.35;93845;1196;80517;-67
2021/10/09 03:21:36;;;;;;;31.40;17.20;;;;;;;0.64;77.60;102491.29;93820;1196;99875;-66
2021/10/09 03:23:40;;;;;;;29.60;16.90;;;;;;;0.63;77.54;102498.10;93813;1196;85557;-66
2021/10/09 03:25:44;;;;;;;30.40;16.70;;;;;;;0.61;77.46;102495.50;93833;1196;94069;-67
2021/10/09 03:27:51;;;;;;;27.70;15.80;;;;;;;0.59;77.65;102492.90;93786;1196;78518;-67
2021/10/09 03:29:55;;;;;;;27.30;17.20;;;;;;;0.60;77.62;102497.50;93729;1196;81072;-67
2021/10/09 03:31:59;;;;;;;32.30;17.90;;;;;;;0.59;77.54;102496.32;93834;1196;98447;-67
2021/10/09 03:34:03;;;;;;;32.20;16.60;;;;;;;0.55;77.79;102498.79;93777;1196;87361;-67
2021/10/09 03:36:07;;;;;;;30.10;17.30;;;;;;;0.53;77.82;102495.73;93831;1195;93299;-67
2021/10/09 03:38:11;;;;;;;29.90;16.10;;;;;;;0.49;77.78;102501.05;93810;1195;77237;-67
2021/10/09 03:40:18;;;;;;;28.50;15.00;;;;;;;0.44;77.77;102502.52;93767;1196;81761;-65
2021/10/09 03:42:24;;;;;;;30.40;17.80;;;;;;;0.41;77.89;102504.27;93793;1195;97601;-64
2021/10/09 03:44:31;;;;;;;29.60;15.30;;;;;;;0.39;78.04;102501.73;93810;1196;85876;-66
2021/10/09 03:46:42;;;;;;;28.10;16.40;;;;;;;0.36;77.88;102500.27;93761;1196;92947;-66
2021/10/09 03:48:59;;;;;;;30.50;16.00;;;;;;;0.31;78.12;102499.97;93807;1196;79141;-67
2021/10/09 03:53:25;;;;;;;26.00;15.30;;;;;;;0.18;78.22;102499.55;93812;1196;99360;-66
2021/10/09 03:55:32;;;;;;;25.10;14.80;;;;;;;0.17;78.28;102499.75;93796;1195;87636;-64
2021/10/09 03:57:38;;;;;;;25.60;14.80;;;;;;;0.15;78.25;102503.39;93773;1196;93826;-64
2021/10/09 03:59:42;;;;;;;25.30;14.30;;;;;;;0.12;78.38;102500.17;93727;1196;80593;-64
2021/10/09 04:01:46;;;;;;;27.50;15.40;;;;;;;0.10;78.36;102498.36;93812;1196;80600;-64
2021/10/09 04:03:50;;;;;;;27.70;15.50;;;;;;;0.08;78.41;102494.49;93793;1196;99593;-66
2021/10/09 04:05:54;;;;;;;26.90;15.00;;;;;;;0.08;78.47;102497.73;93821;1196;87485;-63
2021/10/09 04:07:58;;;;;;;24.80;15.90;;;;;;;0.08;78.52;102496.27;93799;1196;93105;-64
2021/10/09 04:10:03;;;;;;;28.50;15.40;;;;;;;0.09;78.46;102495.88;93760;1196;77354;-67
2021/10/09 04:12:08;;;;;;;29.40;16.20;;;;;;;0.10;78.46;102498.69;93777;1196;81668;-67
2021/10/09 04:14:12;;;;;;;28.00;15.80;;;;;;;0.12;78.41;102498.95;93796;1196;100119;-64
2021/10/09 04:16:16;;;;;;;25.20;14.70;;;;;;;0.12;78.56;102496.09;93902;1196;87804;-64
2021/10/09 04:18:20;;;;;;;26.70;15.20;;;;;;;0.12;78.54;102495.22;93769;1196;93476;-65
2021/10/09 04:20:25;;;;;;;29.20;16.00;;;;;;;0.12;78.41;102498.94;93791;1196;78190;-64
2021/10/09 04:22:29;;;;;;;26.50;15.50;;;;;;;0.11;78.45;102500.41;93780;1196;81617;-64
2021/10/09 04:24:33;;;;;;;27.60;15.30;;;;;;;0.07;78.43;102500.95;93817;1196;98375;-67
2021/10/09 04:26:37;;;;;;;27.20;15.40;;;;;;;0.02;78.49;102501.34;93805;1196;88399;-66
2021/10/09 04:28:45;;;;;;;29.60;15.80;;;;;;;0.01;78.51;102505.81;93826;1196;94102;-67
2021/10/09 04:30:50;;;;;;;27.20;14.40;;;;;;;0.01;78.72;102499.64;93780;1195;78323;-64
2021/10/09 04:32:53;;;;;;;22.40;14.80;;;;;;;0.01;78.80;102503.33;93797;1195;82569;-64
2021/10/09 04:35:01;;;;;;;22.20;14.30;;;;;;;0.00;78.70;102507.27;93824;1188;99848;-64
2021/10/09 04:37:08;;;;;;;25.30;14.40;;;;;;;-0.03;78.81;102505.47;93834;1196;89055;-64
2021/10/09 04:39:12;;;;;;;24.10;14.30;;;;;;;-0.05;78.81;102506.79;93809;1196;93778;-67
2021/10/09 04:41:16;;;;;;;25.70;14.40;;;;;;;-0.05;78.60;102506.11;93770;1196;77408;-67
2021/10/09 04:43:23;;;;;;;20.70;14.00;;;;;;;-0.06;78.85;102509.51;93738;1196;81616;-67
2021/10/09 04:45:27;;;;;;;26.40;15.70;;;;;;;-0.06;78.88;102508.08;93836;1195;99073;-63
2021/10/09 04:47:31;;;;;;;25.00;14.80;;;;;;;-0.06;78.89;102504.20;93874;1196;86858;-64
2021/10/09 04:49:35;;;;;;;24.60;15.00;;;;;;;-0.07;78.62;102506.55;93849;1195;92787;-67
2021/10/09 04:51:39;;;;;;;27.30;15.80;;;;;;;-0.09;78.86;102505.39;93817;1195;80315;-66
2021/10/09 04:53:43;;;;;;;24.40;14.80;;;;;;;-0.06;78.86;102507.91;93796;1196;81612;-67
2021/10/09 04:55:47;;;;;;;27.50;15.50;;;;;;;-0.02;78.89;102509.69;93830;1196;100070;-67
2021/10/09 04:57:55;;;;;;;27.30;15.70;;;;;;;0.02;78.97;102510.05;93837;1196;86275;-67
2021/10/09 04:59:59;;;;;;;24.40;13.80;;;;;;;0.07;79.17;102504.69;93823;1195;94251;-66
2021/10/09 05:02:04;;;;;;;28.10;16.10;;;;;;;0.11;79.09;102507.83;93825;1195;80734;-67
2021/10/09 05:04:08;;;;;;;25.60;14.50;;;;;;;0.14;79.03;102506.98;93851;1195;82040;-67
2021/10/09 05:06:12;;;;;;;30.10;14.70;;;;;;;0.18;79.05;102506.42;93880;1195;100581;-68
2021/10/09 05:08:16;;;;;;;32.60;16.00;;;;;;;0.22;79.06;102508.73;93906;1195;86772;-66
2021/10/09 05:10:20;;;;;;;26.30;14.20;;;;;;;0.23;79.23;102504.24;93816;1196;94197;-65
2021/10/09 05:12:24;;;;;;;26.70;14.40;;;;;;;0.24;79.11;102504.76;93805;1195;78416;-64
2021/10/09 05:14:28;;;;;;;27.30;14.80;;;;;;;0.26;79.05;102508.21;93821;1196;80240;-67
2021/10/09 05:16:32;;;;;;;30.20;14.60;;;;;;;0.25;79.13;102505.21;93831;1196;100275;-68
2021/10/09 05:18:36;;;;;;;32.10;15.30;;;;;;;0.27;79.16;102505.49;93860;1196;88202;-66
2021/10/09 05:20:41;;;;;;;23.90;14.70;;;;;;;0.27;79.18;102507.09;93826;1196;94966;-66
2021/10/09 05:22:45;;;;;;;21.20;13.50;;;;;;;0.27;79.25;102500.52;93844;1195;78671;-67
2021/10/09 05:24:53;;;;;;;22.80;13.80;;;;;;;0.31;79.25;102505.64;93868;1196;80629;-63
2021/10/09 05:26:57;;;;;;;31.40;15.80;;;;;;;0.35;79.22;102504.89;93854;1196;97887;-64
2021/10/09 05:29:01;;;;;;;35.40;16.60;;;;;;;0.44;79.18;102506.42;93880;1195;87074;-64
2021/10/09 05:31:08;;;;;;;54.20;22.80;;;;;;;0.54;79.34;102508.41;93856;1196;94097;-64
2021/10/09 05:33:17;;;;;;;56.30;26.30;;;;;;;0.69;79.36;102513.05;93880;1196;77572;-65
2021/10/09 05:35:22;;;;;;;57.40;27.10;;;;;;;0.88;79.53;102511.53;93904;1196;81048;-67
2021/10/09 05:37:27;;;;;;;57.30;25.60;;;;;;;1.27;79.71;102512.93;93832;1196;100555;-66
2021/10/09 05:39:31;;;;;;;51.80;25.60;;;;;;;2.18;79.86;102507.52;93854;1181;87448;-67
2021/10/09 05:41:38;;;;;;;47.80;23.40;;;;;;;3.03;79.48;102506.92;93820;1195;94099;-67
2021/10/09 05:43:43;;;;;;;30.10;17.40;;;;;;;3.27;78.76;102508.34;93839;1196;77704;-67
2021/10/09 05:45:47;;;;;;;30.00;15.60;;;;;;;3.39;78.15;102509.59;93819;1196;82661;-67
2021/10/09 05:47:52;;;;;;;27.30;15.10;;;;;;;3.33;77.76;102508.16;93843;1195;98790;-67
2021/10/09 05:49:57;;;;;;;33.20;16.70;;;;;;;3.17;77.65;102511.80;93880;1196;86876;-65
2021/10/09 05:52:04;;;;;;;28.30;15.10;;;;;;;3.02;77.49;102510.36;93777;1196;93963;-65
2021/10/09 05:54:19;;;;;;;27.50;15.20;;;;;;;2.91;77.42;102514.17;93734;1196;79337;-65
2021/10/09 05:56:33;;;;;;;33.90;16.90;;;;;;;2.83;77.51;102518.02;93692;1196;81326;-64
2021/10/09 05:58:46;;;;;;;30.50;17.00;;;;;;;2.83;77.59;102519.47;93667;1196;99084;-65
2021/10/09 06:46:33;;;;;;;22.20;13.10;;;;;;;5.23;73.88;102547.54;93862;1196;100131;-65
2021/10/09 06:59:25;;;;;;;22.80;14.10;;;;;;;5.77;73.08;102548.10;93639;1198;92932;-65
2021/10/09 07:00:44;;;;;;;20.00;12.40;;;;;;;5.67;72.61;102555.28;93852;1196;88793;-79
2021/10/09 07:02:52;;;;;;;20.20;13.10;;;;;;;5.66;72.37;102555.86;93857;1196;93908;-79
2021/10/09 07:04:56;;;;;;;19.40;13.20;;;;;;;5.62;72.30;102555.41;93874;1195;77691;-69
2021/10/09 07:07:06;;;;;;;116.90;73.10;;;;;;;5.69;72.11;102558.17;93847;1196;82640;-70
2021/10/09 07:09:10;;;;;;;40.20;26.10;;;;;;;5.78;72.30;102560.72;93884;1195;100488;-68
2021/10/09 07:11:15;;;;;;;24.90;16.70;;;;;;;5.81;71.90;102564.61;93871;1196;87664;-66
2021/10/09 07:13:20;;;;;;;29.50;14.80;;;;;;;5.86;71.73;102563.08;93743;1189;95384;-66
2021/10/09 07:15:24;;;;;;;27.50;14.90;;;;;;;5.94;71.83;102565.17;93846;1195;79745;-67
2021/10/09 07:17:28;;;;;;;27.60;14.70;;;;;;;6.11;71.82;102563.08;93865;1196;82453;-65
2021/10/09 07:19:32;;;;;;;22.90;15.50;;;;;;;6.22;71.51;102561.98;93861;1196;100683;-72
2021/10/09 07:21:36;;;;;;;23.80;13.60;;;;;;;6.24;71.32;102561.64;93842;1195;88017;-70
2021/10/09 07:23:40;;;;;;;25.70;14.30;;;;;;;6.41;71.14;102560.59;93828;1196;94467;-70
2021/10/09 07:25:47;;;;;;;22.30;13.80;;;;;;;6.58;71.07;102561.84;93857;1195;78502;-67
2021/10/09 07:27:52;;;;;;;24.60;13.40;;;;;;;6.87;71.00;102564.16;93875;1196;81106;-64
2021/10/09 07:29:56;;;;;;;18.70;13.60;;;;;;;7.37;70.81;102560.91;93742;1196;99978;-66
2021/10/09 07:32:05;;;;;;;20.90;13.90;;;;;;;7.95;69.78;102560.20;93898;1196;88780;-66
2021/10/09 07:34:09;;;;;;;20.60;13.40;;;;;;;8.34;69.99;102560.22;93835;1196;93425;-67
2021/10/09 07:36:13;;;;;;;19.20;12.90;;;;;;;8.78;70.44;102564.48;93843;1195;79562;-67
2021/10/09 07:38:18;;;;;;;24.20;13.80;;;;;;;9.11;68.60;102570.55;93865;1196;81942;-67
2021/10/09 07:40:22;;;;;;;21.30;13.50;;;;;;;9.51;67.93;102569.73;93861;1181;99701;-66
2021/10/09 07:42:30;;;;;;;19.10;13.00;;;;;;;9.63;66.89;102571.91;93868;1196;89501;-67
2021/10/09 07:44:34;;;;;;;26.50;15.40;;;;;;;9.98;66.13;102571.38;93875;1196;95793;-71
2021/10/09 07:46:41;;;;;;;26.00;15.60;;;;;;;9.90;65.24;102576.20;93832;1196;80682;-69
2021/10/09 07:48:48;;;;;;;27.30;15.00;;;;;;;9.66;65.34;102578.86;93844;1196;81837;-72
2021/10/09 07:50:52;;;;;;;33.70;15.70;;;;;;;9.37;65.14;102578.45;93785;1196;99247;-68
2021/10/09 07:52:56;;;;;;;33.40;16.60;;;;;;;9.22;65.33;102580.02;93885;1195;87306;-73
2021/10/09 07:55:00;;;;;;;32.60;17.10;;;;;;;9.74;65.00;102584.75;93890;1196;93432;-70
2021/10/09 07:57:07;;;;;;;24.70;16.20;;;;;;;10.95;64.25;102574.02;93815;1195;78697;-69
2021/10/09 07:59:14;;;;;;;28.70;16.50;;;;;;;12.55;62.94;102572.36;93879;1196;82463;-69
2021/10/09 08:01:18;;;;;;;23.00;14.30;;;;;;;14.47;61.60;102574.32;93831;1196;99203;-70
2021/10/09 08:03:24;;;;;;;23.70;14.30;;;;;;;15.96;59.75;102570.27;93828;1196;87584;-68
2021/10/09 08:05:29;;;;;;;18.80;14.00;;;;;;;17.22;57.34;102570.78;93837;1196;93164;-72
2021/10/09 08:07:33;;;;;;;21.10;13.40;;;;;;;18.19;55.07;102571.29;93813;1196;78510;-71
2021/10/09 08:09:40;;;;;;;19.20;13.50;;;;;;;18.63;53.04;102568.16;93919;1195;80690;-68
2021/10/09 08:11:44;;;;;;;17.70;13.90;;;;;;;19.23;51.86;102566.05;93870;1196;99187;-68
2021/10/09 08:13:51;;;;;;;18.00;12.80;;;;;;;18.98;49.16;102569.21;93835;1195;86909;-69
2021/10/09 08:15:56;;;;;;;18.70;13.10;;;;;;;17.95;48.91;102572.30;93844;1196;94918;-67
2021/10/09 08:18:03;;;;;;;18.70;12.40;;;;;;;17.39;48.26;102570.20;93833;1195;80053;-67
2021/10/09 08:20:11;;;;;;;16.30;11.80;;;;;;;17.69;48.87;102566.38;93821;1196;81842;-73
2021/10/09 08:22:16;;;;;;;19.60;12.20;;;;;;;18.17;47.61;102565.84;93911;1196;98517;-63
2021/10/09 08:24:28;;;;;;;17.60;11.90;;;;;;;18.93;47.45;102557.10;93751;1196;87330;-67
2021/10/09 08:26:45;;;;;;;16.80;11.00;;;;;;;18.88;44.26;102553.50;93862;1196;93565;-67
2021/10/09 08:36:16;;;;;;;14.00;10.30;;;;;;;19.21;45.11;102549.36;93889;1195;87589;-73
2021/10/09 08:40:47;;;;;;;15.50;10.50;;;;;;;19.92;44.30;102551.65;93883;1196;79569;-73
2021/10/09 08:42:51;;;;;;;16.50;10.40;;;;;;;19.98;43.14;102551.13;93926;1196;81409;-72
2021/10/09 08:44:55;;;;;;;11.80;9.80;;;;;;;20.02;42.27;102549.80;93928;1196;98731;-66
2021/10/09 08:46:59;;;;;;;12.40;9.10;;;;;;;19.95;41.14;102549.63;93898;1195;87627;-67
2021/10/09 08:49:03;;;;;;;13.00;9.80;;;;;;;20.10;41.26;102547.01;93929;1195;94696;-67
2021/10/09 08:51:07;;;;;;;12.30;9.50;;;;;;;20.47;40.13;102543.70;93931;1195;79960;-66
2021/10/09 08:53:12;;;;;;;15.80;10.50;;;;;;;20.62;40.49;102544.80;93865;1196;81801;-67
2021/10/09 08:55:25;;;;;;;14.40;10.30;;;;;;;20.94;39.77;102541.91;93934;1196;99107;-70
2021/10/09 08:57:36;;;;;;;10.90;9.70;;;;;;;21.11;39.84;102540.29;93921;1195;87588;-67
2021/10/09 08:59:50;;;;;;;13.70;9.80;;;;;;;21.58;38.97;102539.17;93928;1196;92698;-73
2021/10/09 09:02:10;;;;;;;12.30;10.10;;;;;;;21.70;37.37;102535.02;93872;1195;79393;-71
2021/10/09 09:04:28;;;;;;;11.00;9.20;;;;;;;21.53;37.54;102533.89;93965;1196;79973;-68
2021/10/09 09:26:21;;;;;;;9.40;6.80;;;;;;;21.98;34.61;102534.86;93927;1195;80336;-65
2021/10/09 09:31:12;;;;;;;9.30;7.10;;;;;;;21.95;34.53;102529.58;93796;1196;101192;-74
2021/10/09 09:33:34;;;;;;;7.90;6.50;;;;;;;21.77;33.46;102528.02;93829;1189;88400;-73
2021/10/09 09:35:50;;;;;;;10.30;5.90;;;;;;;21.84;34.14;102526.47;93900;1196;95915;-73
2021/10/09 09:40:19;;;;;;;9.20;5.80;;;;;;;21.60;33.67;102524.29;93934;1196;81476;-74
2021/10/09 09:42:26;;;;;;;5.90;5.30;;;;;;;21.59;33.12;102522.59;93848;1196;99221;-75
2021/10/09 09:44:30;;;;;;;6.60;5.20;;;;;;;21.33;33.10;102520.02;93918;1195;87183;-64
2021/10/09 09:46:34;;;;;;;6.40;4.90;;;;;;;21.42;33.16;102521.27;93744;1196;92669;-70
2021/10/09 09:48:40;;;;;;;6.70;5.10;;;;;;;20.65;31.73;102518.61;93886;1196;78827;-70
2021/10/09 09:50:45;;;;;;;5.30;4.50;;;;;;;20.04;32.12;102514.88;93922;1183;81355;-69
2021/10/09 09:52:50;;;;;;;6.30;5.70;;;;;;;19.58;32.76;102516.48;93849;1196;100476;-69
2021/10/09 09:54:55;;;;;;;7.00;5.20;;;;;;;19.03;33.35;102514.77;93829;1196;87494;-69
2021/10/09 09:57:01;;;;;;;5.60;5.00;;;;;;;18.65;33.59;102513.02;93907;1196;94622;-69
2021/10/09 09:59:06;;;;;;;6.80;4.80;;;;;;;17.93;33.24;102519.84;93926;1196;79685;-70
2021/10/09 10:01:12;;;;;;;7.00;4.80;;;;;;;17.23;34.29;102513.33;93947;1196;81348;-69
2021/10/09 10:03:25;;;;;;;8.50;5.10;;;;;;;16.84;34.97;102514.27;93937;1196;99981;-69
2021/10/09 10:05:29;;;;;;;6.80;5.30;;;;;;;16.46;35.64;102509.27;93921;1196;88592;-69
2021/10/09 10:07:36;;;;;;;8.10;5.40;;;;;;;16.22;36.07;102514.59;93903;1196;93570;-69
2021/10/09 10:09:43;;;;;;;5.90;4.80;;;;;;;15.88;36.50;102505.54;93871;1196;78552;-69
2021/10/09 10:11:47;;;;;;;8.30;5.80;;;;;;;15.47;36.94;102515.14;93904;1196;82683;-67
2021/10/09 10:16:26;;;;;;;9.20;5.70;;;;;;;14.96;37.91;102499.89;94292;1183;86106;-69
2021/10/09 10:18:54;;;;;;;9.30;6.20;;;;;;;14.78;38.14;102502.99;93990;1195;94747;-69
2021/10/09 10:20:58;;;;;;;9.10;5.80;;;;;;;14.58;38.56;102497.35;93983;1195;80743;-70
2021/10/09 10:23:02;;;;;;;8.20;5.40;;;;;;;14.43;38.73;102497.67;94009;1195;80615;-70
2021/10/09 10:25:32;;;;;;;7.40;5.40;;;;;;;14.40;38.83;102498.73;93964;1195;98556;-69
2021/10/09 10:27:40;;;;;;;8.80;6.30;;;;;;;14.23;38.94;102491.66;94176;1196;87537;-69
2021/10/09 10:29:44;;;;;;;5.80;5.10;;;;;;;14.16;39.45;102488.53;94201;1195;94127;-69
2021/10/09 10:32:14;;;;;;;7.30;5.00;;;;;;;14.10;39.32;102495.35;94097;1195;78726;-67
2021/10/09 10:34:26;;;;;;;7.70;5.20;;;;;;;14.06;39.48;102492.91;94137;1196;81733;-67
2021/10/09 10:36:39;;;;;;;6.90;4.80;;;;;;;13.88;39.51;102495.59;94099;1195;97821;-67
2021/10/09 10:38:49;;;;;;;6.00;4.70;;;;;;;13.88;39.86;102491.72;94177;1195;88359;-65
2021/10/09 10:40:58;;;;;;;6.30;4.70;;;;;;;13.95;40.07;102483.71;94158;1195;93931;-72
2021/10/09 10:43:42;;;;;;;7.30;5.20;;;;;;;13.98;39.83;102488.09;94163;1196;77741;-68
2021/10/09 10:45:46;;;;;;;12.70;5.80;;;;;;;13.94;40.03;102483.98;93771;1195;81378;-69
2021/10/09 10:48:04;;;;;;;6.10;5.30;;;;;;;13.87;39.93;102480.52;94113;1195;99560;-59
2021/10/09 10:50:57;;;;;;;7.30;5.40;;;;;;;13.88;40.15;102482.90;94182;1195;85945;-72
2021/10/09 10:53:05;;;;;;;6.60;5.20;;;;;;;13.82;39.92;102488.77;94137;1195;94371;-71
2021/10/09 10:55:09;;;;;;;13.20;7.80;;;;;;;13.74;40.24;102491.12;94117;1196;78782;-74
2021/10/09 10:57:21;;;;;;;13.30;8.10;;;;;;;13.68;40.20;102479.23;94147;1195;81060;-73
2021/10/09 10:59:30;;;;;;;8.40;6.10;;;;;;;13.65;40.25;102481.71;94130;1196;99331;-72
2021/10/09 11:01:34;;;;;;;7.80;6.00;;;;;;;13.59;40.46;102482.48;94142;1195;87589;-63
2021/10/09 11:03:39;;;;;;;8.70;5.00;;;;;;;13.66;40.70;102477.99;94134;1196;93213;-61
2021/10/09 11:05:57;;;;;;;5.90;5.30;;;;;;;13.70;40.72;102477.73;92916;1206;600050;-61
2021/10/09 11:08:09;;;;;;;7.20;5.40;;;;;;;13.67;40.49;102477.66;94023;1196;77899;-62
2021/10/09 11:10:18;;;;;;;8.10;5.50;;;;;;;13.59;39.96;102473.55;94014;1196;81634;-62
2021/10/09 11:12:29;;;;;;;7.40;5.40;;;;;;;13.49;40.47;102468.79;94068;1196;95530;-61
2021/10/09 11:14:37;;;;;;;6.50;5.00;;;;;;;13.51;40.63;102469.31;94087;1196;87982;-64
2021/10/09 11:16:44;;;;;;;8.40;6.10;;;;;;;13.47;40.19;102471.36;94040;1196;94691;-61
2021/10/09 11:18:56;;;;;;;9.90;5.70;;;;;;;13.42;40.40;102466.30;93952;1196;79623;-64
2021/10/09 11:21:05;;;;;;;7.40;6.00;;;;;;;13.43;40.71;102461.73;94001;1196;82066;-66